sensor_id;sensor_type;location;lat;lon;timestamp;P1;durP1;ratioP1;P2;durP2;ratioP2
59040;SDS011;44825;53.200;6.448;2024-03-23T00:52:39;17.77;;;4.47;;
59040;SDS011;44825;53.200;6.448;2024-03-23T00:55:05;25.60;;;5.18;;
59040;SDS011;44825;53.200;6.448;2024-03-23T00:57:32;23.65;;;5.70;;
59040;SDS011;44825;53.200;6.448;2024-03-23T00:59:58;19.73;;;4.35;;
59040;SDS011;44825;53.200;6.448;2024-03-23T01:02:24;21.52;;;4.88;;
59040;SDS011;44825;53.200;6.448;2024-03-23T01:04:51;22.10;;;4.65;;
59040;SDS011;44825;53.200;6.448;2024-03-23T01:07:17;18.25;;;5.15;;
59040;SDS011;44825;53.200;6.448;2024-03-23T01:09:43;23.85;;;4.60;;
59040;SDS011;44825;53.200;6.448;2024-03-23T01:12:09;28.30;;;5.55;;
59040;SDS011;44825;53.200;6.448;2024-03-23T01:14:35;21.38;;;4.80;;
59040;SDS011;44825;53.200;6.448;2024-03-23T01:17:01;15.05;;;4.30;;
59040;SDS011;44825;53.200;6.448;2024-03-23T01:19:27;20.42;;;3.97;;
59040;SDS011;44825;53.200;6.448;2024-03-23T01:21:53;13.95;;;3.42;;
59040;SDS011;44825;53.200;6.448;2024-03-23T01:24:19;24.52;;;4.32;;
59040;SDS011;44825;53.200;6.448;2024-03-23T01:26:45;16.80;;;4.13;;
59040;SDS011;44825;53.200;6.448;2024-03-23T01:29:11;19.60;;;4.78;;
59040;SDS011;44825;53.200;6.448;2024-03-23T01:31:37;26.80;;;4.95;;
59040;SDS011;44825;53.200;6.448;2024-03-23T01:34:03;14.52;;;4.18;;
59040;SDS011;44825;53.200;6.448;2024-03-23T01:36:29;25.15;;;4.88;;
59040;SDS011;44825;53.200;6.448;2024-03-23T01:38:55;19.45;;;4.57;;
59040;SDS011;44825;53.200;6.448;2024-03-23T01:41:21;23.83;;;4.90;;
59040;SDS011;44825;53.200;6.448;2024-03-23T01:43:49;22.10;;;4.85;;
59040;SDS011;44825;53.200;6.448;2024-03-23T01:46:16;24.25;;;4.95;;
59040;SDS011;44825;53.200;6.448;2024-03-23T01:48:42;18.35;;;4.00;;
59040;SDS011;44825;53.200;6.448;2024-03-23T01:51:08;23.25;;;4.25;;
59040;SDS011;44825;53.200;6.448;2024-03-23T01:53:36;20.38;;;4.90;;
59040;SDS011;44825;53.200;6.448;2024-03-23T01:56:02;20.40;;;4.53;;
59040;SDS011;44825;53.200;6.448;2024-03-23T01:58:28;18.88;;;5.38;;
59040;SDS011;44825;53.200;6.448;2024-03-23T02:00:54;19.10;;;4.07;;
59040;SDS011;44825;53.200;6.448;2024-03-23T02:03:24;21.75;;;4.65;;
59040;SDS011;44825;53.200;6.448;2024-03-23T02:05:50;20.65;;;4.72;;
59040;SDS011;44825;53.200;6.448;2024-03-23T02:08:17;23.58;;;4.78;;
59040;SDS011;44825;53.200;6.448;2024-03-23T02:10:43;16.13;;;4.20;;
59040;SDS011;44825;53.200;6.448;2024-03-23T02:13:09;12.40;;;3.22;;
59040;SDS011;44825;53.200;6.448;2024-03-23T02:15:36;21.48;;;4.47;;
59040;SDS011;44825;53.200;6.448;2024-03-23T02:18:02;15.95;;;4.07;;
59040;SDS011;44825;53.200;6.448;2024-03-23T02:20:28;22.42;;;4.78;;
59040;SDS011;44825;53.200;6.448;2024-03-23T02:22:54;20.27;;;4.32;;
59040;SDS011;44825;53.200;6.448;2024-03-23T02:25:20;16.45;;;4.15;;
59040;SDS011;44825;53.200;6.448;2024-03-23T02:27:46;19.30;;;3.53;;
59040;SDS011;44825;53.200;6.448;2024-03-23T02:30:13;24.38;;;5.15;;
59040;SDS011;44825;53.200;6.448;2024-03-23T02:32:39;16.15;;;3.65;;
59040;SDS011;44825;53.200;6.448;2024-03-23T02:35:05;19.13;;;4.05;;
59040;SDS011;44825;53.200;6.448;2024-03-23T02:37:31;18.50;;;4.30;;
59040;SDS011;44825;53.200;6.448;2024-03-23T02:39:57;19.30;;;4.50;;
59040;SDS011;44825;53.200;6.448;2024-03-23T02:42:23;18.45;;;5.32;;
59040;SDS011;44825;53.200;6.448;2024-03-23T02:44:49;18.60;;;4.60;;
59040;SDS011;44825;53.200;6.448;2024-03-23T02:47:15;18.92;;;4.22;;
59040;SDS011;44825;53.200;6.448;2024-03-23T02:49:42;23.75;;;5.07;;
59040;SDS011;44825;53.200;6.448;2024-03-23T02:52:08;18.25;;;4.00;;
59040;SDS011;44825;53.200;6.448;2024-03-23T02:54:34;19.50;;;4.25;;
59040;SDS011;44825;53.200;6.448;2024-03-23T02:57:00;17.55;;;3.67;;
59040;SDS011;44825;53.200;6.448;2024-03-23T02:59:26;14.48;;;3.38;;
59040;SDS011;44825;53.200;6.448;2024-03-23T03:01:52;22.08;;;4.20;;
59040;SDS011;44825;53.200;6.448;2024-03-23T03:04:18;14.40;;;3.53;;
59040;SDS011;44825;53.200;6.448;2024-03-23T03:06:47;13.18;;;3.00;;
59040;SDS011;44825;53.200;6.448;2024-03-23T03:09:13;18.40;;;3.47;;
59040;SDS011;44825;53.200;6.448;2024-03-23T03:11:39;20.20;;;3.85;;
59040;SDS011;44825;53.200;6.448;2024-03-23T03:14:05;16.63;;;3.92;;
59040;SDS011;44825;53.200;6.448;2024-03-23T03:16:32;20.77;;;3.63;;
59040;SDS011;44825;53.200;6.448;2024-03-23T03:18:59;17.45;;;3.67;;
59040;SDS011;44825;53.200;6.448;2024-03-23T03:21:26;19.83;;;3.72;;
59040;SDS011;44825;53.200;6.448;2024-03-23T03:23:52;20.65;;;4.38;;
59040;SDS011;44825;53.200;6.448;2024-03-23T03:26:18;16.35;;;3.55;;
59040;SDS011;44825;53.200;6.448;2024-03-23T03:28:44;15.52;;;4.53;;
59040;SDS011;44825;53.200;6.448;2024-03-23T03:31:13;22.00;;;3.15;;
59040;SDS011;44825;53.200;6.448;2024-03-23T03:33:39;18.98;;;3.25;;
59040;SDS011;44825;53.200;6.448;2024-03-23T03:36:06;18.10;;;3.53;;
59040;SDS011;44825;53.200;6.448;2024-03-23T03:38:32;15.63;;;3.88;;
59040;SDS011;44825;53.200;6.448;2024-03-23T03:41:00;13.90;;;2.92;;
59040;SDS011;44825;53.200;6.448;2024-03-23T03:43:26;13.15;;;3.67;;
59040;SDS011;44825;53.200;6.448;2024-03-23T03:45:55;13.15;;;3.25;;
59040;SDS011;44825;53.200;6.448;2024-03-23T03:48:21;19.50;;;3.53;;
59040;SDS011;44825;53.200;6.448;2024-03-23T03:50:48;11.25;;;2.75;;
59040;SDS011;44825;53.200;6.448;2024-03-23T03:53:14;17.60;;;3.50;;
59040;SDS011;44825;53.200;6.448;2024-03-23T03:55:40;12.25;;;2.83;;
59040;SDS011;44825;53.200;6.448;2024-03-23T03:58:06;16.17;;;3.20;;
59040;SDS011;44825;53.200;6.448;2024-03-23T04:00:32;12.75;;;2.92;;
59040;SDS011;44825;53.200;6.448;2024-03-23T04:02:58;17.80;;;3.15;;
59040;SDS011;44825;53.200;6.448;2024-03-23T04:05:24;16.63;;;2.63;;
59040;SDS011;44825;53.200;6.448;2024-03-23T04:07:50;15.38;;;3.25;;
59040;SDS011;44825;53.200;6.448;2024-03-23T04:10:16;20.40;;;4.90;;
59040;SDS011;44825;53.200;6.448;2024-03-23T04:12:43;17.67;;;3.85;;
59040;SDS011;44825;53.200;6.448;2024-03-23T04:15:10;15.07;;;2.25;;
59040;SDS011;44825;53.200;6.448;2024-03-23T04:17:36;18.77;;;2.75;;
59040;SDS011;44825;53.200;6.448;2024-03-23T04:20:02;13.60;;;3.53;;
59040;SDS011;44825;53.200;6.448;2024-03-23T04:22:34;14.57;;;3.15;;
59040;SDS011;44825;53.200;6.448;2024-03-23T04:25:00;11.57;;;2.33;;
59040;SDS011;44825;53.200;6.448;2024-03-23T04:27:34;15.68;;;2.83;;
59040;SDS011;44825;53.200;6.448;2024-03-23T04:30:00;10.45;;;2.63;;
59040;SDS011;44825;53.200;6.448;2024-03-23T04:32:26;17.70;;;2.75;;
59040;SDS011;44825;53.200;6.448;2024-03-23T04:34:54;16.45;;;2.92;;
59040;SDS011;44825;53.200;6.448;2024-03-23T04:37:21;12.90;;;3.10;;
59040;SDS011;44825;53.200;6.448;2024-03-23T04:39:47;15.63;;;3.25;;
59040;SDS011;44825;53.200;6.448;2024-03-23T04:42:14;14.75;;;2.83;;
59040;SDS011;44825;53.200;6.448;2024-03-23T04:44:41;20.73;;;2.92;;
59040;SDS011;44825;53.200;6.448;2024-03-23T04:47:07;12.45;;;3.50;;
59040;SDS011;44825;53.200;6.448;2024-03-23T04:49:33;14.07;;;2.80;;
59040;SDS011;44825;53.200;6.448;2024-03-23T04:52:01;12.07;;;2.60;;
59040;SDS011;44825;53.200;6.448;2024-03-23T04:54:27;15.65;;;2.70;;
59040;SDS011;44825;53.200;6.448;2024-03-23T04:56:53;16.20;;;4.05;;
59040;SDS011;44825;53.200;6.448;2024-03-23T04:59:19;13.23;;;2.60;;
59040;SDS011;44825;53.200;6.448;2024-03-23T05:01:46;9.80;;;2.10;;
59040;SDS011;44825;53.200;6.448;2024-03-23T05:04:12;18.05;;;2.92;;
59040;SDS011;44825;53.200;6.448;2024-03-23T05:06:38;14.52;;;2.60;;
59040;SDS011;44825;53.200;6.448;2024-03-23T05:09:04;14.65;;;2.25;;
59040;SDS011;44825;53.200;6.448;2024-03-23T05:11:36;14.75;;;2.80;;
59040;SDS011;44825;53.200;6.448;2024-03-23T05:14:03;13.48;;;2.50;;
59040;SDS011;44825;53.200;6.448;2024-03-23T05:16:29;14.40;;;3.30;;
59040;SDS011;44825;53.200;6.448;2024-03-23T05:18:55;15.95;;;2.20;;
59040;SDS011;44825;53.200;6.448;2024-03-23T05:21:21;15.60;;;3.08;;
59040;SDS011;44825;53.200;6.448;2024-03-23T05:23:47;13.40;;;2.17;;
59040;SDS011;44825;53.200;6.448;2024-03-23T05:26:14;14.50;;;2.92;;
59040;SDS011;44825;53.200;6.448;2024-03-23T05:28:40;11.82;;;2.20;;
59040;SDS011;44825;53.200;6.448;2024-03-23T05:31:06;16.08;;;2.42;;
59040;SDS011;44825;53.200;6.448;2024-03-23T05:33:34;12.43;;;2.60;;
59040;SDS011;44825;53.200;6.448;2024-03-23T05:36:01;12.60;;;2.53;;
59040;SDS011;44825;53.200;6.448;2024-03-23T05:38:28;11.93;;;2.47;;
59040;SDS011;44825;53.200;6.448;2024-03-23T05:43:21;14.82;;;2.67;;
59040;SDS011;44825;53.200;6.448;2024-03-23T05:45:56;12.43;;;2.47;;
59040;SDS011;44825;53.200;6.448;2024-03-23T05:48:22;10.52;;;1.98;;
59040;SDS011;44825;53.200;6.448;2024-03-23T05:50:49;18.63;;;2.70;;
59040;SDS011;44825;53.200;6.448;2024-03-23T05:53:15;18.23;;;2.58;;
59040;SDS011;44825;53.200;6.448;2024-03-23T05:55:42;12.73;;;2.25;;
59040;SDS011;44825;53.200;6.448;2024-03-23T05:58:08;13.00;;;2.50;;
59040;SDS011;44825;53.200;6.448;2024-03-23T06:00:34;16.23;;;2.60;;
59040;SDS011;44825;53.200;6.448;2024-03-23T06:03:00;13.00;;;2.38;;
59040;SDS011;44825;53.200;6.448;2024-03-23T06:05:26;18.67;;;2.40;;
59040;SDS011;44825;53.200;6.448;2024-03-23T06:07:52;17.35;;;2.47;;
59040;SDS011;44825;53.200;6.448;2024-03-23T06:10:18;15.68;;;2.95;;
59040;SDS011;44825;53.200;6.448;2024-03-23T06:12:47;12.25;;;2.00;;
59040;SDS011;44825;53.200;6.448;2024-03-23T06:15:14;7.88;;;1.45;;
59040;SDS011;44825;53.200;6.448;2024-03-23T06:17:40;12.23;;;1.83;;
59040;SDS011;44825;53.200;6.448;2024-03-23T06:20:06;9.70;;;2.05;;
59040;SDS011;44825;53.200;6.448;2024-03-23T06:22:32;15.02;;;1.80;;
59040;SDS011;44825;53.200;6.448;2024-03-23T06:24:58;10.85;;;1.88;;
59040;SDS011;44825;53.200;6.448;2024-03-23T06:27:24;11.27;;;2.75;;
59040;SDS011;44825;53.200;6.448;2024-03-23T06:29:51;10.27;;;1.63;;
59040;SDS011;44825;53.200;6.448;2024-03-23T06:32:17;13.73;;;2.30;;
59040;SDS011;44825;53.200;6.448;2024-03-23T06:34:43;13.43;;;2.08;;
59040;SDS011;44825;53.200;6.448;2024-03-23T06:37:10;9.35;;;1.90;;
59040;SDS011;44825;53.200;6.448;2024-03-23T06:39:36;12.02;;;2.08;;
59040;SDS011;44825;53.200;6.448;2024-03-23T06:42:02;14.70;;;2.28;;
59040;SDS011;44825;53.200;6.448;2024-03-23T06:44:28;8.57;;;1.60;;
59040;SDS011;44825;53.200;6.448;2024-03-23T06:46:55;10.15;;;1.52;;
59040;SDS011;44825;53.200;6.448;2024-03-23T06:49:22;9.98;;;1.52;;
59040;SDS011;44825;53.200;6.448;2024-03-23T06:51:48;10.75;;;1.63;;
59040;SDS011;44825;53.200;6.448;2024-03-23T06:54:14;10.90;;;2.13;;
59040;SDS011;44825;53.200;6.448;2024-03-23T06:56:41;15.57;;;2.25;;
59040;SDS011;44825;53.200;6.448;2024-03-23T06:59:07;10.15;;;1.65;;
59040;SDS011;44825;53.200;6.448;2024-03-23T07:01:33;12.75;;;1.80;;
59040;SDS011;44825;53.200;6.448;2024-03-23T07:04:00;7.70;;;1.55;;
59040;SDS011;44825;53.200;6.448;2024-03-23T07:06:26;13.75;;;1.90;;
59040;SDS011;44825;53.200;6.448;2024-03-23T07:08:52;12.75;;;2.58;;
59040;SDS011;44825;53.200;6.448;2024-03-23T07:11:19;11.30;;;1.80;;
59040;SDS011;44825;53.200;6.448;2024-03-23T07:13:45;9.95;;;2.05;;
59040;SDS011;44825;53.200;6.448;2024-03-23T07:16:12;8.48;;;1.70;;
59040;SDS011;44825;53.200;6.448;2024-03-23T07:18:38;7.43;;;1.83;;
59040;SDS011;44825;53.200;6.448;2024-03-23T07:21:04;8.27;;;1.60;;
59040;SDS011;44825;53.200;6.448;2024-03-23T07:23:31;5.72;;;1.10;;
59040;SDS011;44825;53.200;6.448;2024-03-23T07:25:58;8.18;;;1.33;;
59040;SDS011;44825;53.200;6.448;2024-03-23T07:28:24;7.05;;;1.55;;
59040;SDS011;44825;53.200;6.448;2024-03-23T07:31:01;9.25;;;1.45;;
59040;SDS011;44825;53.200;6.448;2024-03-23T07:33:28;8.23;;;1.00;;
59040;SDS011;44825;53.200;6.448;2024-03-23T07:35:54;6.40;;;1.15;;
59040;SDS011;44825;53.200;6.448;2024-03-23T07:38:20;7.00;;;1.23;;
59040;SDS011;44825;53.200;6.448;2024-03-23T07:40:46;4.57;;;0.80;;
59040;SDS011;44825;53.200;6.448;2024-03-23T07:43:13;4.30;;;0.75;;
59040;SDS011;44825;53.200;6.448;2024-03-23T07:45:39;7.97;;;1.52;;
59040;SDS011;44825;53.200;6.448;2024-03-23T07:48:05;7.47;;;1.10;;
59040;SDS011;44825;53.200;6.448;2024-03-23T07:50:31;5.88;;;1.40;;
59040;SDS011;44825;53.200;6.448;2024-03-23T07:52:57;10.88;;;1.38;;
59040;SDS011;44825;53.200;6.448;2024-03-23T07:55:23;6.72;;;1.30;;
59040;SDS011;44825;53.200;6.448;2024-03-23T07:57:50;8.77;;;1.58;;
59040;SDS011;44825;53.200;6.448;2024-03-23T08:00:18;8.63;;;1.55;;
59040;SDS011;44825;53.200;6.448;2024-03-23T08:02:44;7.65;;;2.03;;
59040;SDS011;44825;53.200;6.448;2024-03-23T08:05:10;8.05;;;1.52;;
59040;SDS011;44825;53.200;6.448;2024-03-23T08:07:36;11.52;;;2.65;;
59040;SDS011;44825;53.200;6.448;2024-03-23T08:10:02;8.50;;;1.67;;
59040;SDS011;44825;53.200;6.448;2024-03-23T08:12:29;5.63;;;1.05;;
59040;SDS011;44825;53.200;6.448;2024-03-23T08:14:55;8.45;;;1.50;;
59040;SDS011;44825;53.200;6.448;2024-03-23T08:17:21;8.75;;;1.40;;
59040;SDS011;44825;53.200;6.448;2024-03-23T08:19:47;7.95;;;1.73;;
59040;SDS011;44825;53.200;6.448;2024-03-23T08:22:13;7.63;;;1.77;;
59040;SDS011;44825;53.200;6.448;2024-03-23T08:24:39;6.55;;;1.38;;
59040;SDS011;44825;53.200;6.448;2024-03-23T08:27:05;9.68;;;1.58;;
59040;SDS011;44825;53.200;6.448;2024-03-23T08:29:32;7.38;;;1.70;;
59040;SDS011;44825;53.200;6.448;2024-03-23T08:31:58;8.55;;;1.98;;
59040;SDS011;44825;53.200;6.448;2024-03-23T08:34:25;8.13;;;1.98;;
59040;SDS011;44825;53.200;6.448;2024-03-23T08:36:51;11.40;;;2.50;;
59040;SDS011;44825;53.200;6.448;2024-03-23T08:39:17;8.40;;;1.58;;
59040;SDS011;44825;53.200;6.448;2024-03-23T08:41:44;11.75;;;2.55;;
59040;SDS011;44825;53.200;6.448;2024-03-23T08:44:11;9.07;;;2.28;;
59040;SDS011;44825;53.200;6.448;2024-03-23T08:46:37;7.20;;;2.08;;
59040;SDS011;44825;53.200;6.448;2024-03-23T08:49:03;8.85;;;2.17;;
59040;SDS011;44825;53.200;6.448;2024-03-23T08:51:29;8.68;;;2.25;;
59040;SDS011;44825;53.200;6.448;2024-03-23T08:53:55;11.80;;;2.45;;
59040;SDS011;44825;53.200;6.448;2024-03-23T08:56:21;12.18;;;2.40;;
59040;SDS011;44825;53.200;6.448;2024-03-23T08:58:47;10.88;;;2.30;;
59040;SDS011;44825;53.200;6.448;2024-03-23T09:01:13;10.35;;;2.20;;
59040;SDS011;44825;53.200;6.448;2024-03-23T09:03:39;10.70;;;3.00;;
59040;SDS011;44825;53.200;6.448;2024-03-23T09:06:09;7.68;;;2.03;;
59040;SDS011;44825;53.200;6.448;2024-03-23T09:08:36;10.10;;;2.38;;
59040;SDS011;44825;53.200;6.448;2024-03-23T09:11:05;8.50;;;2.05;;
59040;SDS011;44825;53.200;6.448;2024-03-23T09:13:34;10.52;;;2.28;;
59040;SDS011;44825;53.200;6.448;2024-03-23T09:16:01;8.60;;;2.22;;
59040;SDS011;44825;53.200;6.448;2024-03-23T09:18:27;8.57;;;2.20;;
59040;SDS011;44825;53.200;6.448;2024-03-23T09:20:53;10.50;;;2.30;;
59040;SDS011;44825;53.200;6.448;2024-03-23T09:23:22;10.32;;;2.20;;
59040;SDS011;44825;53.200;6.448;2024-03-23T09:25:48;12.40;;;2.70;;
59040;SDS011;44825;53.200;6.448;2024-03-23T09:28:14;18.15;;;2.92;;
59040;SDS011;44825;53.200;6.448;2024-03-23T09:30:40;10.32;;;1.95;;
59040;SDS011;44825;53.200;6.448;2024-03-23T09:33:09;8.75;;;1.60;;
59040;SDS011;44825;53.200;6.448;2024-03-23T09:35:39;4.82;;;1.50;;
59040;SDS011;44825;53.200;6.448;2024-03-23T09:38:06;7.07;;;1.30;;
59040;SDS011;44825;53.200;6.448;2024-03-23T09:40:39;7.45;;;1.45;;
59040;SDS011;44825;53.200;6.448;2024-03-23T09:43:07;9.23;;;1.70;;
59040;SDS011;44825;53.200;6.448;2024-03-23T09:45:34;7.00;;;1.52;;
59040;SDS011;44825;53.200;6.448;2024-03-23T09:48:01;7.35;;;1.80;;
59040;SDS011;44825;53.200;6.448;2024-03-23T09:50:28;9.13;;;2.17;;
59040;SDS011;44825;53.200;6.448;2024-03-23T09:52:54;6.10;;;1.30;;
59040;SDS011;44825;53.200;6.448;2024-03-23T09:55:20;5.30;;;0.90;;
59040;SDS011;44825;53.200;6.448;2024-03-23T09:57:46;7.60;;;0.98;;
59040;SDS011;44825;53.200;6.448;2024-03-23T10:00:12;6.20;;;0.93;;
59040;SDS011;44825;53.200;6.448;2024-03-23T10:02:38;6.13;;;0.95;;
59040;SDS011;44825;53.200;6.448;2024-03-23T10:05:04;6.60;;;1.10;;
59040;SDS011;44825;53.200;6.448;2024-03-23T10:07:30;5.43;;;1.20;;
59040;SDS011;44825;53.200;6.448;2024-03-23T10:09:56;5.20;;;1.27;;
59040;SDS011;44825;53.200;6.448;2024-03-23T10:12:23;6.28;;;1.65;;
59040;SDS011;44825;53.200;6.448;2024-03-23T10:14:49;10.20;;;2.00;;
59040;SDS011;44825;53.200;6.448;2024-03-23T10:17:16;9.32;;;2.25;;
59040;SDS011;44825;53.200;6.448;2024-03-23T10:19:43;11.75;;;2.33;;
59040;SDS011;44825;53.200;6.448;2024-03-23T10:22:12;13.45;;;2.40;;
59040;SDS011;44825;53.200;6.448;2024-03-23T10:24:39;9.00;;;2.08;;
59040;SDS011;44825;53.200;6.448;2024-03-23T10:27:05;10.20;;;2.08;;
59040;SDS011;44825;53.200;6.448;2024-03-23T10:29:31;13.38;;;2.35;;
59040;SDS011;44825;53.200;6.448;2024-03-23T10:32:10;9.65;;;2.17;;
59040;SDS011;44825;53.200;6.448;2024-03-23T10:34:37;11.75;;;1.92;;
59040;SDS011;44825;53.200;6.448;2024-03-23T10:37:03;6.65;;;1.83;;
59040;SDS011;44825;53.200;6.448;2024-03-23T10:39:34;11.32;;;2.40;;
59040;SDS011;44825;53.200;6.448;2024-03-23T10:42:04;4.85;;;1.33;;
59040;SDS011;44825;53.200;6.448;2024-03-23T10:44:30;6.15;;;1.25;;
59040;SDS011;44825;53.200;6.448;2024-03-23T10:46:57;6.93;;;1.40;;
59040;SDS011;44825;53.200;6.448;2024-03-23T10:49:32;10.90;;;2.42;;
59040;SDS011;44825;53.200;6.448;2024-03-23T10:54:24;9.25;;;1.88;;
59040;SDS011;44825;53.200;6.448;2024-03-23T10:56:56;12.75;;;2.45;;
59040;SDS011;44825;53.200;6.448;2024-03-23T10:59:23;8.63;;;2.03;;
59040;SDS011;44825;53.200;6.448;2024-03-23T11:04:35;7.65;;;1.65;;
59040;SDS011;44825;53.200;6.448;2024-03-23T11:07:03;8.68;;;2.03;;
59040;SDS011;44825;53.200;6.448;2024-03-23T11:09:50;8.57;;;1.75;;
59040;SDS011;44825;53.200;6.448;2024-03-23T11:14:50;8.25;;;1.60;;
59040;SDS011;44825;53.200;6.448;2024-03-23T11:17:20;8.70;;;1.77;;
59040;SDS011;44825;53.200;6.448;2024-03-23T11:28:10;9.50;;;2.15;;
59040;SDS011;44825;53.200;6.448;2024-03-23T11:30:37;14.27;;;2.30;;
59040;SDS011;44825;53.200;6.448;2024-03-23T11:33:03;12.65;;;2.10;;
59040;SDS011;44825;53.200;6.448;2024-03-23T11:40:31;8.05;;;2.03;;
59040;SDS011;44825;53.200;6.448;2024-03-23T11:42:59;7.07;;;1.70;;
59040;SDS011;44825;53.200;6.448;2024-03-23T11:45:25;8.10;;;2.05;;
59040;SDS011;44825;53.200;6.448;2024-03-23T11:48:13;6.30;;;1.60;;
59040;SDS011;44825;53.200;6.448;2024-03-23T11:50:39;11.35;;;2.53;;
59040;SDS011;44825;53.200;6.448;2024-03-23T11:58:13;9.18;;;2.20;;
59040;SDS011;44825;53.200;6.448;2024-03-23T12:00:39;8.95;;;2.00;;
59040;SDS011;44825;53.200;6.448;2024-03-23T12:03:05;7.93;;;1.77;;
59040;SDS011;44825;53.200;6.448;2024-03-23T12:05:31;9.35;;;1.77;;
59040;SDS011;44825;53.200;6.448;2024-03-23T12:10:47;13.23;;;2.03;;
59040;SDS011;44825;53.200;6.448;2024-03-23T12:13:17;9.30;;;1.80;;
59040;SDS011;44825;53.200;6.448;2024-03-23T12:15:44;10.32;;;2.10;;
59040;SDS011;44825;53.200;6.448;2024-03-23T12:18:10;8.70;;;1.70;;
59040;SDS011;44825;53.200;6.448;2024-03-23T12:20:37;6.53;;;1.48;;
59040;SDS011;44825;53.200;6.448;2024-03-23T12:23:10;8.82;;;1.48;;
59040;SDS011;44825;53.200;6.448;2024-03-23T12:25:37;8.15;;;1.30;;
59040;SDS011;44825;53.200;6.448;2024-03-23T12:28:04;6.07;;;1.42;;
59040;SDS011;44825;53.200;6.448;2024-03-23T12:30:33;7.97;;;1.27;;
59040;SDS011;44825;53.200;6.448;2024-03-23T12:32:59;6.78;;;1.50;;
59040;SDS011;44825;53.200;6.448;2024-03-23T12:35:26;6.38;;;1.50;;
59040;SDS011;44825;53.200;6.448;2024-03-23T12:37:52;9.18;;;1.77;;
59040;SDS011;44825;53.200;6.448;2024-03-23T12:40:18;6.80;;;1.05;;
59040;SDS011;44825;53.200;6.448;2024-03-23T12:42:44;7.68;;;1.65;;
59040;SDS011;44825;53.200;6.448;2024-03-23T12:45:10;10.52;;;1.73;;
59040;SDS011;44825;53.200;6.448;2024-03-23T12:47:36;7.25;;;1.42;;
59040;SDS011;44825;53.200;6.448;2024-03-23T12:50:02;5.70;;;1.45;;
59040;SDS011;44825;53.200;6.448;2024-03-23T12:52:28;4.82;;;0.88;;
59040;SDS011;44825;53.200;6.448;2024-03-23T12:54:55;5.30;;;1.13;;
59040;SDS011;44825;53.200;6.448;2024-03-23T12:57:22;5.78;;;1.15;;
59040;SDS011;44825;53.200;6.448;2024-03-23T12:59:49;5.72;;;1.23;;
59040;SDS011;44825;53.200;6.448;2024-03-23T13:02:16;7.22;;;1.65;;
59040;SDS011;44825;53.200;6.448;2024-03-23T13:04:43;12.20;;;2.25;;
59040;SDS011;44825;53.200;6.448;2024-03-23T13:07:09;11.70;;;2.70;;
59040;SDS011;44825;53.200;6.448;2024-03-23T13:09:35;11.75;;;2.10;;
59040;SDS011;44825;53.200;6.448;2024-03-23T13:12:01;12.70;;;2.08;;
59040;SDS011;44825;53.200;6.448;2024-03-23T13:14:27;14.32;;;2.33;;
59040;SDS011;44825;53.200;6.448;2024-03-23T13:16:53;8.10;;;1.58;;
59040;SDS011;44825;53.200;6.448;2024-03-23T13:19:19;14.95;;;3.10;;
59040;SDS011;44825;53.200;6.448;2024-03-23T13:21:50;11.73;;;1.77;;
59040;SDS011;44825;53.200;6.448;2024-03-23T13:24:16;9.18;;;1.98;;
59040;SDS011;44825;53.200;6.448;2024-03-23T13:26:42;9.55;;;1.90;;
59040;SDS011;44825;53.200;6.448;2024-03-23T13:29:08;9.90;;;1.58;;
59040;SDS011;44825;53.200;6.448;2024-03-23T13:31:34;9.95;;;2.17;;
59040;SDS011;44825;53.200;6.448;2024-03-23T13:34:00;9.07;;;1.65;;
59040;SDS011;44825;53.200;6.448;2024-03-23T13:36:27;12.48;;;2.33;;
59040;SDS011;44825;53.200;6.448;2024-03-23T13:38:53;7.20;;;1.67;;
59040;SDS011;44825;53.200;6.448;2024-03-23T13:41:19;9.10;;;1.50;;
59040;SDS011;44825;53.200;6.448;2024-03-23T13:43:45;6.13;;;1.30;;
59040;SDS011;44825;53.200;6.448;2024-03-23T13:46:11;8.85;;;1.50;;
59040;SDS011;44825;53.200;6.448;2024-03-23T13:48:37;9.80;;;1.70;;
59040;SDS011;44825;53.200;6.448;2024-03-23T13:51:03;7.50;;;1.65;;
59040;SDS011;44825;53.200;6.448;2024-03-23T13:53:29;11.75;;;2.30;;
59040;SDS011;44825;53.200;6.448;2024-03-23T13:55:56;9.98;;;2.00;;
59040;SDS011;44825;53.200;6.448;2024-03-23T13:58:22;7.88;;;1.75;;
59040;SDS011;44825;53.200;6.448;2024-03-23T14:00:50;7.97;;;1.92;;
59040;SDS011;44825;53.200;6.448;2024-03-23T14:03:16;6.05;;;1.80;;
59040;SDS011;44825;53.200;6.448;2024-03-23T14:05:43;12.00;;;1.92;;
59040;SDS011;44825;53.200;6.448;2024-03-23T14:08:10;12.57;;;2.63;;
59040;SDS011;44825;53.200;6.448;2024-03-23T14:10:36;6.10;;;1.65;;
59040;SDS011;44825;53.200;6.448;2024-03-23T14:13:02;8.77;;;1.90;;
59040;SDS011;44825;53.200;6.448;2024-03-23T14:15:29;6.88;;;1.38;;
59040;SDS011;44825;53.200;6.448;2024-03-23T14:17:58;7.95;;;1.60;;
59040;SDS011;44825;53.200;6.448;2024-03-23T14:20:24;10.45;;;1.70;;
59040;SDS011;44825;53.200;6.448;2024-03-23T14:22:51;10.15;;;1.85;;
59040;SDS011;44825;53.200;6.448;2024-03-23T14:25:17;7.10;;;1.85;;
59040;SDS011;44825;53.200;6.448;2024-03-23T14:27:44;9.55;;;1.67;;
59040;SDS011;44825;53.200;6.448;2024-03-23T14:30:10;13.40;;;2.05;;
59040;SDS011;44825;53.200;6.448;2024-03-23T14:32:37;8.73;;;1.90;;
59040;SDS011;44825;53.200;6.448;2024-03-23T14:35:03;10.50;;;1.67;;
59040;SDS011;44825;53.200;6.448;2024-03-23T14:37:30;11.27;;;3.10;;
59040;SDS011;44825;53.200;6.448;2024-03-23T14:39:56;8.70;;;1.92;;
59040;SDS011;44825;53.200;6.448;2024-03-23T14:42:23;8.85;;;2.10;;
59040;SDS011;44825;53.200;6.448;2024-03-23T14:44:49;10.15;;;2.53;;
59040;SDS011;44825;53.200;6.448;2024-03-23T14:47:15;11.23;;;1.88;;
59040;SDS011;44825;53.200;6.448;2024-03-23T14:49:42;9.07;;;1.80;;
59040;SDS011;44825;53.200;6.448;2024-03-23T14:52:12;10.77;;;1.90;;
59040;SDS011;44825;53.200;6.448;2024-03-23T14:54:38;10.77;;;2.30;;
59040;SDS011;44825;53.200;6.448;2024-03-23T14:57:04;12.73;;;2.20;;
59040;SDS011;44825;53.200;6.448;2024-03-23T14:59:32;13.25;;;3.00;;
59040;SDS011;44825;53.200;6.448;2024-03-23T15:01:58;14.02;;;2.45;;
59040;SDS011;44825;53.200;6.448;2024-03-23T15:04:24;8.93;;;1.30;;
59040;SDS011;44825;53.200;6.448;2024-03-23T15:06:51;6.05;;;1.13;;
59040;SDS011;44825;53.200;6.448;2024-03-23T15:09:17;7.55;;;1.35;;
59040;SDS011;44825;53.200;6.448;2024-03-23T15:11:43;4.88;;;1.27;;
59040;SDS011;44825;53.200;6.448;2024-03-23T15:14:09;8.07;;;1.42;;
59040;SDS011;44825;53.200;6.448;2024-03-23T15:16:36;8.73;;;1.80;;
59040;SDS011;44825;53.200;6.448;2024-03-23T15:19:02;9.18;;;1.98;;
59040;SDS011;44825;53.200;6.448;2024-03-23T15:21:31;8.00;;;1.52;;
59040;SDS011;44825;53.200;6.448;2024-03-23T15:23:57;8.90;;;1.65;;
59040;SDS011;44825;53.200;6.448;2024-03-23T15:26:23;10.68;;;1.52;;
59040;SDS011;44825;53.200;6.448;2024-03-23T15:28:49;9.18;;;1.95;;
59040;SDS011;44825;53.200;6.448;2024-03-23T15:31:24;10.95;;;2.22;;
59040;SDS011;44825;53.200;6.448;2024-03-23T15:33:51;8.85;;;1.90;;
59040;SDS011;44825;53.200;6.448;2024-03-23T15:36:17;14.25;;;2.40;;
59040;SDS011;44825;53.200;6.448;2024-03-23T15:38:43;11.85;;;1.90;;
59040;SDS011;44825;53.200;6.448;2024-03-23T15:41:10;13.85;;;1.98;;
59040;SDS011;44825;53.200;6.448;2024-03-23T15:43:36;14.48;;;2.00;;
59040;SDS011;44825;53.200;6.448;2024-03-23T15:46:03;12.63;;;2.28;;
59040;SDS011;44825;53.200;6.448;2024-03-23T15:48:31;11.90;;;2.33;;
59040;SDS011;44825;53.200;6.448;2024-03-23T15:51:01;9.45;;;1.75;;
59040;SDS011;44825;53.200;6.448;2024-03-23T15:53:27;10.30;;;2.47;;
59040;SDS011;44825;53.200;6.448;2024-03-23T15:58:20;10.18;;;1.90;;
59040;SDS011;44825;53.200;6.448;2024-03-23T16:00:53;8.35;;;1.70;;
59040;SDS011;44825;53.200;6.448;2024-03-23T16:03:19;11.00;;;2.28;;